sensor_id;sensor_type;location;lat;lon;timestamp;P1;durP1;ratioP1;P2;durP2;ratioP2
21305;SDS011;10812;51.838;5.838;2023-06-22T00:01:24;9.55;;;7.85;;
21305;SDS011;10812;51.838;5.838;2023-06-22T00:03:54;10.18;;;7.80;;
21305;SDS011;10812;51.838;5.838;2023-06-22T00:06:22;11.02;;;7.03;;
21305;SDS011;10812;51.838;5.838;2023-06-22T00:08:50;11.48;;;7.53;;
21305;SDS011;10812;51.838;5.838;2023-06-22T00:11:19;10.30;;;7.30;;
21305;SDS011;10812;51.838;5.838;2023-06-22T00:13:47;8.50;;;7.65;;
21305;SDS011;10812;51.838;5.838;2023-06-22T00:16:17;8.23;;;7.40;;
21305;SDS011;10812;51.838;5.838;2023-06-22T00:18:45;10.70;;;6.85;;
21305;SDS011;10812;51.838;5.838;2023-06-22T00:21:16;9.10;;;7.68;;
21305;SDS011;10812;51.838;5.838;2023-06-22T00:23:46;9.65;;;7.85;;
21305;SDS011;10812;51.838;5.838;2023-06-22T00:26:14;10.02;;;7.85;;
21305;SDS011;10812;51.838;5.838;2023-06-22T00:28:43;8.85;;;7.28;;
21305;SDS011;10812;51.838;5.838;2023-06-22T00:31:11;11.50;;;7.13;;
21305;SDS011;10812;51.838;5.838;2023-06-22T00:33:39;9.95;;;7.97;;
21305;SDS011;10812;51.838;5.838;2023-06-22T00:36:08;7.22;;;6.18;;
21305;SDS011;10812;51.838;5.838;2023-06-22T00:38:40;9.60;;;7.28;;
21305;SDS011;10812;51.838;5.838;2023-06-22T00:41:09;9.10;;;6.55;;
21305;SDS011;10812;51.838;5.838;2023-06-22T00:43:37;8.90;;;7.15;;
21305;SDS011;10812;51.838;5.838;2023-06-22T00:46:05;8.90;;;7.32;;
21305;SDS011;10812;51.838;5.838;2023-06-22T00:48:33;8.50;;;7.15;;
21305;SDS011;10812;51.838;5.838;2023-06-22T00:51:03;8.10;;;6.53;;
21305;SDS011;10812;51.838;5.838;2023-06-22T00:53:31;8.10;;;6.78;;
21305;SDS011;10812;51.838;5.838;2023-06-22T00:56:03;8.85;;;7.13;;
21305;SDS011;10812;51.838;5.838;2023-06-22T00:58:32;8.63;;;7.22;;
21305;SDS011;10812;51.838;5.838;2023-06-22T01:01:00;9.05;;;7.30;;
21305;SDS011;10812;51.838;5.838;2023-06-22T01:03:28;9.10;;;7.32;;
21305;SDS011;10812;51.838;5.838;2023-06-22T01:05:58;11.65;;;8.43;;
21305;SDS011;10812;51.838;5.838;2023-06-22T01:08:37;8.57;;;7.32;;
21305;SDS011;10812;51.838;5.838;2023-06-22T01:11:15;11.07;;;8.32;;
21305;SDS011;10812;51.838;5.838;2023-06-22T01:13:49;9.02;;;7.57;;
21305;SDS011;10812;51.838;5.838;2023-06-22T01:16:23;10.55;;;8.27;;
21305;SDS011;10812;51.838;5.838;2023-06-22T01:18:54;12.80;;;8.25;;
21305;SDS011;10812;51.838;5.838;2023-06-22T01:21:25;9.48;;;8.43;;
21305;SDS011;10812;51.838;5.838;2023-06-22T01:24:00;12.75;;;8.93;;
21305;SDS011;10812;51.838;5.838;2023-06-22T01:26:40;11.63;;;8.27;;
21305;SDS011;10812;51.838;5.838;2023-06-22T01:29:16;9.13;;;8.18;;
21305;SDS011;10812;51.838;5.838;2023-06-22T01:31:45;9.75;;;8.75;;
21305;SDS011;10812;51.838;5.838;2023-06-22T01:34:15;9.82;;;7.63;;
21305;SDS011;10812;51.838;5.838;2023-06-22T01:36:44;10.20;;;7.78;;
21305;SDS011;10812;51.838;5.838;2023-06-22T01:39:13;11.43;;;8.55;;
21305;SDS011;10812;51.838;5.838;2023-06-22T01:41:42;11.65;;;8.55;;
21305;SDS011;10812;51.838;5.838;2023-06-22T01:44:11;11.27;;;8.23;;
21305;SDS011;10812;51.838;5.838;2023-06-22T01:46:41;10.77;;;8.70;;
21305;SDS011;10812;51.838;5.838;2023-06-22T01:49:09;12.73;;;8.48;;
21305;SDS011;10812;51.838;5.838;2023-06-22T01:51:38;10.50;;;9.10;;
21305;SDS011;10812;51.838;5.838;2023-06-22T01:57:57;12.70;;;8.25;;
21305;SDS011;10812;51.838;5.838;2023-06-22T02:00:25;10.10;;;7.68;;
21305;SDS011;10812;51.838;5.838;2023-06-22T02:03:01;10.25;;;9.13;;
21305;SDS011;10812;51.838;5.838;2023-06-22T02:05:36;12.93;;;9.13;;
21305;SDS011;10812;51.838;5.838;2023-06-22T02:08:09;9.90;;;8.30;;
21305;SDS011;10812;51.838;5.838;2023-06-22T02:10:40;11.15;;;8.93;;
21305;SDS011;10812;51.838;5.838;2023-06-22T02:13:11;10.43;;;8.15;;
21305;SDS011;10812;51.838;5.838;2023-06-22T02:15:41;12.85;;;8.23;;
21305;SDS011;10812;51.838;5.838;2023-06-22T02:18:11;11.93;;;8.20;;
21305;SDS011;10812;51.838;5.838;2023-06-22T02:20:40;11.40;;;8.95;;
21305;SDS011;10812;51.838;5.838;2023-06-22T02:23:08;12.50;;;9.60;;
21305;SDS011;10812;51.838;5.838;2023-06-22T02:25:36;10.80;;;8.90;;
21305;SDS011;10812;51.838;5.838;2023-06-22T02:28:04;10.75;;;9.18;;
21305;SDS011;10812;51.838;5.838;2023-06-22T02:30:32;12.93;;;9.90;;
21305;SDS011;10812;51.838;5.838;2023-06-22T02:33:01;14.30;;;9.05;;
21305;SDS011;10812;51.838;5.838;2023-06-22T02:35:30;12.63;;;9.80;;
21305;SDS011;10812;51.838;5.838;2023-06-22T02:38:02;10.90;;;8.82;;
21305;SDS011;10812;51.838;5.838;2023-06-22T02:40:31;11.48;;;8.77;;
21305;SDS011;10812;51.838;5.838;2023-06-22T02:43:00;10.88;;;8.65;;
21305;SDS011;10812;51.838;5.838;2023-06-22T02:45:29;10.98;;;9.25;;
21305;SDS011;10812;51.838;5.838;2023-06-22T02:47:57;10.35;;;9.25;;
21305;SDS011;10812;51.838;5.838;2023-06-22T02:50:26;12.50;;;8.55;;
21305;SDS011;10812;51.838;5.838;2023-06-22T02:52:56;12.45;;;9.00;;
21305;SDS011;10812;51.838;5.838;2023-06-22T02:55:24;10.85;;;8.85;;
21305;SDS011;10812;51.838;5.838;2023-06-22T02:57:52;10.55;;;8.20;;
21305;SDS011;10812;51.838;5.838;2023-06-22T03:08:33;11.73;;;8.40;;
21305;SDS011;10812;51.838;5.838;2023-06-22T03:11:01;10.63;;;7.90;;
21305;SDS011;10812;51.838;5.838;2023-06-22T03:13:29;9.70;;;8.63;;
21305;SDS011;10812;51.838;5.838;2023-06-22T03:15:57;11.77;;;8.82;;
21305;SDS011;10812;51.838;5.838;2023-06-22T03:18:26;12.00;;;9.20;;
21305;SDS011;10812;51.838;5.838;2023-06-22T03:20:54;10.40;;;8.75;;
21305;SDS011;10812;51.838;5.838;2023-06-22T03:23:22;13.70;;;9.27;;
21305;SDS011;10812;51.838;5.838;2023-06-22T03:25:51;12.93;;;9.20;;
21305;SDS011;10812;51.838;5.838;2023-06-22T03:28:22;10.68;;;8.73;;
21305;SDS011;10812;51.838;5.838;2023-06-22T03:30:50;11.55;;;8.95;;
21305;SDS011;10812;51.838;5.838;2023-06-22T03:33:18;11.07;;;8.55;;
21305;SDS011;10812;51.838;5.838;2023-06-22T03:35:46;8.98;;;7.60;;
21305;SDS011;10812;51.838;5.838;2023-06-22T03:38:14;11.32;;;8.27;;
21305;SDS011;10812;51.838;5.838;2023-06-22T03:40:42;10.32;;;8.00;;
21305;SDS011;10812;51.838;5.838;2023-06-22T03:43:12;8.85;;;7.43;;
21305;SDS011;10812;51.838;5.838;2023-06-22T03:45:40;9.45;;;7.57;;
21305;SDS011;10812;51.838;5.838;2023-06-22T03:48:08;10.23;;;8.05;;
21305;SDS011;10812;51.838;5.838;2023-06-22T03:50:36;9.13;;;8.20;;
21305;SDS011;10812;51.838;5.838;2023-06-22T03:53:04;10.43;;;7.95;;
21305;SDS011;10812;51.838;5.838;2023-06-22T03:55:33;9.95;;;8.43;;
21305;SDS011;10812;51.838;5.838;2023-06-22T03:58:02;9.93;;;8.55;;
21305;SDS011;10812;51.838;5.838;2023-06-22T04:00:33;9.90;;;8.90;;
21305;SDS011;10812;51.838;5.838;2023-06-22T04:03:01;10.68;;;8.93;;
21305;SDS011;10812;51.838;5.838;2023-06-22T04:05:30;13.95;;;9.48;;
21305;SDS011;10812;51.838;5.838;2023-06-22T04:07:58;13.20;;;9.77;;
21305;SDS011;10812;51.838;5.838;2023-06-22T04:10:26;11.57;;;10.18;;
21305;SDS011;10812;51.838;5.838;2023-06-22T04:12:54;13.65;;;10.48;;
21305;SDS011;10812;51.838;5.838;2023-06-22T04:15:23;11.93;;;10.05;;
21305;SDS011;10812;51.838;5.838;2023-06-22T04:17:53;11.32;;;9.82;;
21305;SDS011;10812;51.838;5.838;2023-06-22T04:20:23;12.50;;;10.80;;
21305;SDS011;10812;51.838;5.838;2023-06-22T04:22:55;13.00;;;10.45;;
21305;SDS011;10812;51.838;5.838;2023-06-22T04:25:23;15.52;;;12.23;;
21305;SDS011;10812;51.838;5.838;2023-06-22T04:27:52;15.18;;;11.55;;
21305;SDS011;10812;51.838;5.838;2023-06-22T04:30:20;13.70;;;11.02;;
21305;SDS011;10812;51.838;5.838;2023-06-22T04:32:48;13.07;;;10.77;;
21305;SDS011;10812;51.838;5.838;2023-06-22T04:35:24;16.02;;;10.65;;
21305;SDS011;10812;51.838;5.838;2023-06-22T04:37:53;13.18;;;11.18;;
21305;SDS011;10812;51.838;5.838;2023-06-22T04:40:22;16.90;;;12.70;;
21305;SDS011;10812;51.838;5.838;2023-06-22T04:42:50;14.50;;;11.65;;
21305;SDS011;10812;51.838;5.838;2023-06-22T04:45:21;18.17;;;13.00;;
21305;SDS011;10812;51.838;5.838;2023-06-22T04:47:49;20.80;;;13.02;;
21305;SDS011;10812;51.838;5.838;2023-06-22T04:50:18;14.02;;;11.77;;
21305;SDS011;10812;51.838;5.838;2023-06-22T04:52:49;17.92;;;14.48;;
21305;SDS011;10812;51.838;5.838;2023-06-22T04:55:18;20.40;;;14.70;;
21305;SDS011;10812;51.838;5.838;2023-06-22T04:57:47;21.58;;;14.95;;
21305;SDS011;10812;51.838;5.838;2023-06-22T05:00:16;17.30;;;15.40;;
21305;SDS011;10812;51.838;5.838;2023-06-22T05:02:46;20.52;;;15.95;;
21305;SDS011;10812;51.838;5.838;2023-06-22T05:05:14;18.58;;;15.55;;
21305;SDS011;10812;51.838;5.838;2023-06-22T05:07:44;18.00;;;15.30;;
21305;SDS011;10812;51.838;5.838;2023-06-22T05:10:16;17.30;;;14.93;;
21305;SDS011;10812;51.838;5.838;2023-06-22T05:12:44;20.90;;;16.10;;
21305;SDS011;10812;51.838;5.838;2023-06-22T05:15:13;20.65;;;15.82;;
21305;SDS011;10812;51.838;5.838;2023-06-22T05:17:41;20.23;;;14.68;;
21305;SDS011;10812;51.838;5.838;2023-06-22T05:20:10;20.83;;;16.23;;
21305;SDS011;10812;51.838;5.838;2023-06-22T05:22:39;23.00;;;16.50;;
21305;SDS011;10812;51.838;5.838;2023-06-22T05:25:10;20.05;;;16.63;;
21305;SDS011;10812;51.838;5.838;2023-06-22T05:27:40;21.15;;;16.75;;
21305;SDS011;10812;51.838;5.838;2023-06-22T05:30:10;18.27;;;16.27;;
21305;SDS011;10812;51.838;5.838;2023-06-22T05:32:38;18.75;;;16.02;;
21305;SDS011;10812;51.838;5.838;2023-06-22T05:35:07;18.90;;;16.15;;
21305;SDS011;10812;51.838;5.838;2023-06-22T05:37:35;21.15;;;16.90;;
21305;SDS011;10812;51.838;5.838;2023-06-22T05:40:04;24.13;;;16.50;;
21305;SDS011;10812;51.838;5.838;2023-06-22T05:42:33;20.52;;;17.20;;
21305;SDS011;10812;51.838;5.838;2023-06-22T05:45:03;21.70;;;16.63;;
21305;SDS011;10812;51.838;5.838;2023-06-22T05:47:32;23.52;;;16.63;;
21305;SDS011;10812;51.838;5.838;2023-06-22T05:50:00;20.35;;;16.77;;
21305;SDS011;10812;51.838;5.838;2023-06-22T05:52:32;18.65;;;16.20;;
21305;SDS011;10812;51.838;5.838;2023-06-22T05:55:01;18.67;;;15.93;;
21305;SDS011;10812;51.838;5.838;2023-06-22T05:57:30;17.63;;;15.52;;
21305;SDS011;10812;51.838;5.838;2023-06-22T05:59:58;17.85;;;15.82;;
21305;SDS011;10812;51.838;5.838;2023-06-22T06:02:28;19.50;;;16.23;;
21305;SDS011;10812;51.838;5.838;2023-06-22T06:04:56;18.73;;;16.73;;
21305;SDS011;10812;51.838;5.838;2023-06-22T06:07:24;18.42;;;15.32;;
21305;SDS011;10812;51.838;5.838;2023-06-22T06:09:53;16.27;;;14.60;;
21305;SDS011;10812;51.838;5.838;2023-06-22T06:12:21;15.80;;;14.05;;
21305;SDS011;10812;51.838;5.838;2023-06-22T06:14:50;17.55;;;15.23;;
21305;SDS011;10812;51.838;5.838;2023-06-22T06:17:19;17.40;;;14.77;;
21305;SDS011;10812;51.838;5.838;2023-06-22T06:19:49;16.60;;;14.80;;
21305;SDS011;10812;51.838;5.838;2023-06-22T06:22:17;16.13;;;14.15;;
21305;SDS011;10812;51.838;5.838;2023-06-22T06:24:47;15.82;;;14.02;;
21305;SDS011;10812;51.838;5.838;2023-06-22T06:27:15;17.98;;;15.30;;
21305;SDS011;10812;51.838;5.838;2023-06-22T06:29:45;16.83;;;15.20;;
21305;SDS011;10812;51.838;5.838;2023-06-22T06:32:14;20.98;;;16.08;;
21305;SDS011;10812;51.838;5.838;2023-06-22T06:38:25;18.25;;;15.40;;
21305;SDS011;10812;51.838;5.838;2023-06-22T06:40:53;17.05;;;14.70;;
21305;SDS011;10812;51.838;5.838;2023-06-22T06:43:21;17.75;;;15.90;;
21305;SDS011;10812;51.838;5.838;2023-06-22T06:45:51;17.08;;;14.52;;
21305;SDS011;10812;51.838;5.838;2023-06-22T06:48:19;17.92;;;15.45;;
21305;SDS011;10812;51.838;5.838;2023-06-22T06:50:47;17.25;;;15.07;;
21305;SDS011;10812;51.838;5.838;2023-06-22T06:53:16;18.05;;;16.17;;
21305;SDS011;10812;51.838;5.838;2023-06-22T06:55:45;17.67;;;15.80;;
21305;SDS011;10812;51.838;5.838;2023-06-22T06:58:14;18.42;;;15.73;;
21305;SDS011;10812;51.838;5.838;2023-06-22T07:00:42;20.50;;;16.35;;
21305;SDS011;10812;51.838;5.838;2023-06-22T07:03:10;19.70;;;15.45;;
21305;SDS011;10812;51.838;5.838;2023-06-22T07:05:39;16.88;;;15.18;;
21305;SDS011;10812;51.838;5.838;2023-06-22T07:08:07;17.85;;;15.88;;
21305;SDS011;10812;51.838;5.838;2023-06-22T07:10:35;20.15;;;15.80;;
21305;SDS011;10812;51.838;5.838;2023-06-22T07:13:05;18.85;;;16.10;;
21305;SDS011;10812;51.838;5.838;2023-06-22T07:15:33;19.80;;;15.90;;
21305;SDS011;10812;51.838;5.838;2023-06-22T07:18:02;21.20;;;15.95;;
21305;SDS011;10812;51.838;5.838;2023-06-22T07:20:30;18.80;;;16.60;;
21305;SDS011;10812;51.838;5.838;2023-06-22T07:22:59;22.52;;;17.70;;
21305;SDS011;10812;51.838;5.838;2023-06-22T07:25:27;17.27;;;15.45;;
21305;SDS011;10812;51.838;5.838;2023-06-22T07:27:58;17.88;;;15.80;;
21305;SDS011;10812;51.838;5.838;2023-06-22T07:30:29;18.85;;;15.60;;
21305;SDS011;10812;51.838;5.838;2023-06-22T07:32:59;19.15;;;17.15;;
21305;SDS011;10812;51.838;5.838;2023-06-22T07:35:30;17.67;;;15.65;;
21305;SDS011;10812;51.838;5.838;2023-06-22T07:37:59;18.80;;;16.77;;
21305;SDS011;10812;51.838;5.838;2023-06-22T07:40:31;17.88;;;15.98;;
21305;SDS011;10812;51.838;5.838;2023-06-22T07:42:59;19.52;;;17.08;;
21305;SDS011;10812;51.838;5.838;2023-06-22T07:45:29;21.27;;;17.67;;
21305;SDS011;10812;51.838;5.838;2023-06-22T07:47:59;17.83;;;15.82;;
21305;SDS011;10812;51.838;5.838;2023-06-22T07:50:28;18.58;;;16.30;;
21305;SDS011;10812;51.838;5.838;2023-06-22T07:52:57;20.15;;;18.05;;
21305;SDS011;10812;51.838;5.838;2023-06-22T07:55:25;19.50;;;16.85;;
21305;SDS011;10812;51.838;5.838;2023-06-22T07:57:54;20.60;;;17.92;;
21305;SDS011;10812;51.838;5.838;2023-06-22T08:00:24;20.27;;;18.10;;
21305;SDS011;10812;51.838;5.838;2023-06-22T08:02:54;19.75;;;17.73;;
21305;SDS011;10812;51.838;5.838;2023-06-22T08:05:22;18.90;;;16.90;;
21305;SDS011;10812;51.838;5.838;2023-06-22T08:07:51;20.98;;;18.40;;
21305;SDS011;10812;51.838;5.838;2023-06-22T08:10:19;19.83;;;17.20;;
21305;SDS011;10812;51.838;5.838;2023-06-22T08:12:48;21.13;;;18.63;;
21305;SDS011;10812;51.838;5.838;2023-06-22T08:15:16;19.00;;;16.52;;
21305;SDS011;10812;51.838;5.838;2023-06-22T08:17:44;18.92;;;16.27;;
21305;SDS011;10812;51.838;5.838;2023-06-22T08:20:14;19.13;;;17.13;;
21305;SDS011;10812;51.838;5.838;2023-06-22T08:22:42;18.55;;;14.80;;
21305;SDS011;10812;51.838;5.838;2023-06-22T08:25:11;19.15;;;17.23;;
21305;SDS011;10812;51.838;5.838;2023-06-22T08:27:39;17.75;;;15.32;;
21305;SDS011;10812;51.838;5.838;2023-06-22T08:30:09;19.25;;;17.38;;
21305;SDS011;10812;51.838;5.838;2023-06-22T08:32:38;18.63;;;16.75;;
21305;SDS011;10812;51.838;5.838;2023-06-22T08:35:06;18.17;;;16.38;;
21305;SDS011;10812;51.838;5.838;2023-06-22T08:37:37;18.25;;;16.42;;
21305;SDS011;10812;51.838;5.838;2023-06-22T08:40:07;18.35;;;16.13;;
21305;SDS011;10812;51.838;5.838;2023-06-22T08:42:37;18.48;;;16.35;;
21305;SDS011;10812;51.838;5.838;2023-06-22T08:45:08;21.52;;;16.08;;
21305;SDS011;10812;51.838;5.838;2023-06-22T08:47:37;18.65;;;15.60;;
21305;SDS011;10812;51.838;5.838;2023-06-22T08:50:06;17.35;;;15.55;;
21305;SDS011;10812;51.838;5.838;2023-06-22T08:52:37;16.63;;;14.90;;
21305;SDS011;10812;51.838;5.838;2023-06-22T08:55:07;16.27;;;14.57;;
21305;SDS011;10812;51.838;5.838;2023-06-22T08:57:36;16.40;;;14.68;;
21305;SDS011;10812;51.838;5.838;2023-06-22T09:00:06;16.23;;;14.63;;
21305;SDS011;10812;51.838;5.838;2023-06-22T09:02:43;15.30;;;13.80;;
21305;SDS011;10812;51.838;5.838;2023-06-22T09:05:11;16.65;;;14.93;;
21305;SDS011;10812;51.838;5.838;2023-06-22T09:07:41;14.90;;;13.40;;
21305;SDS011;10812;51.838;5.838;2023-06-22T09:10:10;15.07;;;13.55;;
21305;SDS011;10812;51.838;5.838;2023-06-22T09:12:39;15.68;;;13.48;;
21305;SDS011;10812;51.838;5.838;2023-06-22T09:15:07;16.23;;;14.32;;
21305;SDS011;10812;51.838;5.838;2023-06-22T09:17:42;15.23;;;13.63;;
21305;SDS011;10812;51.838;5.838;2023-06-22T09:20:13;15.07;;;13.50;;
21305;SDS011;10812;51.838;5.838;2023-06-22T09:22:43;14.98;;;12.60;;
21305;SDS011;10812;51.838;5.838;2023-06-22T09:25:11;13.60;;;12.30;;
21305;SDS011;10812;51.838;5.838;2023-06-22T09:27:40;13.07;;;11.88;;
21305;SDS011;10812;51.838;5.838;2023-06-22T09:30:08;13.02;;;11.73;;
21305;SDS011;10812;51.838;5.838;2023-06-22T09:32:36;13.27;;;11.88;;
21305;SDS011;10812;51.838;5.838;2023-06-22T09:35:05;13.25;;;11.88;;
21305;SDS011;10812;51.838;5.838;2023-06-22T09:37:35;14.07;;;11.75;;
21305;SDS011;10812;51.838;5.838;2023-06-22T09:40:06;13.52;;;12.00;;
21305;SDS011;10812;51.838;5.838;2023-06-22T09:42:37;14.05;;;12.40;;
21305;SDS011;10812;51.838;5.838;2023-06-22T09:45:05;13.23;;;11.85;;
21305;SDS011;10812;51.838;5.838;2023-06-22T09:47:34;14.93;;;12.20;;
21305;SDS011;10812;51.838;5.838;2023-06-22T09:50:02;14.38;;;11.70;;
21305;SDS011;10812;51.838;5.838;2023-06-22T09:52:31;12.50;;;10.57;;
21305;SDS011;10812;51.838;5.838;2023-06-22T09:55:15;14.65;;;10.50;;
21305;SDS011;10812;51.838;5.838;2023-06-22T09:57:43;11.13;;;9.90;;
21305;SDS011;10812;51.838;5.838;2023-06-22T10:00:12;10.75;;;9.65;;
21305;SDS011;10812;51.838;5.838;2023-06-22T10:02:41;12.25;;;9.68;;
21305;SDS011;10812;51.838;5.838;2023-06-22T10:05:10;10.75;;;9.65;;
21305;SDS011;10812;51.838;5.838;2023-06-22T10:07:39;10.90;;;9.68;;
21305;SDS011;10812;51.838;5.838;2023-06-22T10:10:10;10.63;;;9.43;;
21305;SDS011;10812;51.838;5.838;2023-06-22T10:12:42;12.05;;;10.05;;
21305;SDS011;10812;51.838;5.838;2023-06-22T10:15:13;12.10;;;9.40;;
21305;SDS011;10812;51.838;5.838;2023-06-22T10:17:42;10.45;;;9.35;;
21305;SDS011;10812;51.838;5.838;2023-06-22T10:20:10;10.98;;;9.43;;
21305;SDS011;10812;51.838;5.838;2023-06-22T10:30:22;10.45;;;9.07;;
21305;SDS011;10812;51.838;5.838;2023-06-22T10:32:51;9.55;;;8.27;;
21305;SDS011;10812;51.838;5.838;2023-06-22T10:35:19;10.35;;;8.30;;
21305;SDS011;10812;51.838;5.838;2023-06-22T10:37:48;12.95;;;9.50;;
21305;SDS011;10812;51.838;5.838;2023-06-22T10:40:17;11.63;;;9.70;;
21305;SDS011;10812;51.838;5.838;2023-06-22T10:42:46;9.88;;;8.85;;
21305;SDS011;10812;51.838;5.838;2023-06-22T10:45:14;9.65;;;8.35;;
21305;SDS011;10812;51.838;5.838;2023-06-22T10:47:43;9.90;;;8.90;;
21305;SDS011;10812;51.838;5.838;2023-06-22T10:50:11;11.18;;;8.70;;
21305;SDS011;10812;51.838;5.838;2023-06-22T10:52:40;8.82;;;7.85;;
21305;SDS011;10812;51.838;5.838;2023-06-22T10:55:08;10.32;;;8.88;;
21305;SDS011;10812;51.838;5.838;2023-06-22T10:57:37;9.48;;;7.72;;
21305;SDS011;10812;51.838;5.838;2023-06-22T11:00:10;10.63;;;9.25;;
21305;SDS011;10812;51.838;5.838;2023-06-22T11:02:39;9.45;;;8.52;;
21305;SDS011;10812;51.838;5.838;2023-06-22T11:05:09;8.55;;;7.70;;
21305;SDS011;10812;51.838;5.838;2023-06-22T11:07:38;11.20;;;8.02;;
21305;SDS011;10812;51.838;5.838;2023-06-22T11:10:15;9.25;;;8.25;;
21305;SDS011;10812;51.838;5.838;2023-06-22T11:12:43;10.85;;;7.97;;
21305;SDS011;10812;51.838;5.838;2023-06-22T11:15:11;9.23;;;8.32;;
21305;SDS011;10812;51.838;5.838;2023-06-22T11:17:39;8.90;;;7.97;;
21305;SDS011;10812;51.838;5.838;2023-06-22T11:20:08;9.95;;;7.80;;
21305;SDS011;10812;51.838;5.838;2023-06-22T11:22:38;8.40;;;7.50;;
21305;SDS011;10812;51.838;5.838;2023-06-22T11:25:07;9.90;;;8.85;;
21305;SDS011;10812;51.838;5.838;2023-06-22T11:27:38;9.40;;;7.75;;
21305;SDS011;10812;51.838;5.838;2023-06-22T11:30:07;8.77;;;7.97;;
21305;SDS011;10812;51.838;5.838;2023-06-22T11:32:35;9.05;;;7.72;;
21305;SDS011;10812;51.838;5.838;2023-06-22T11:35:04;10.07;;;7.50;;
21305;SDS011;10812;51.838;5.838;2023-06-22T11:37:34;7.75;;;6.95;;
21305;SDS011;10812;51.838;5.838;2023-06-22T11:40:02;10.30;;;7.72;;
21305;SDS011;10812;51.838;5.838;2023-06-22T11:42:34;8.55;;;7.75;;
21305;SDS011;10812;51.838;5.838;2023-06-22T11:45:04;9.93;;;8.80;;
21305;SDS011;10812;51.838;5.838;2023-06-22T11:47:33;12.45;;;9.88;;
21305;SDS011;10812;51.838;5.838;2023-06-22T11:50:01;10.27;;;9.07;;
21305;SDS011;10812;51.838;5.838;2023-06-22T11:52:29;12.07;;;10.88;;
21305;SDS011;10812;51.838;5.838;2023-06-22T11:54:59;13.60;;;11.43;;
21305;SDS011;10812;51.838;5.838;2023-06-22T11:57:29;13.98;;;12.18;;
21305;SDS011;10812;51.838;5.838;2023-06-22T12:00:00;14.35;;;11.75;;
21305;SDS011;10812;51.838;5.838;2023-06-22T12:02:32;16.92;;;12.90;;
21305;SDS011;10812;51.838;5.838;2023-06-22T12:05:00;14.93;;;13.18;;
21305;SDS011;10812;51.838;5.838;2023-06-22T12:07:30;18.65;;;14.98;;
21305;SDS011;10812;51.838;5.838;2023-06-22T12:10:00;19.63;;;16.83;;
21305;SDS011;10812;51.838;5.838;2023-06-22T12:12:29;17.83;;;15.23;;
21305;SDS011;10812;51.838;5.838;2023-06-22T12:14:57;15.43;;;13.77;;
21305;SDS011;10812;51.838;5.838;2023-06-22T12:17:29;17.23;;;14.45;;
21305;SDS011;10812;51.838;5.838;2023-06-22T12:19:58;16.88;;;15.18;;
21305;SDS011;10812;51.838;5.838;2023-06-22T12:22:26;18.90;;;16.90;;
21305;SDS011;10812;51.838;5.838;2023-06-22T12:24:54;19.25;;;16.20;;
21305;SDS011;10812;51.838;5.838;2023-06-22T12:27:24;20.50;;;17.58;;
21305;SDS011;10812;51.838;5.838;2023-06-22T12:29:53;20.77;;;16.77;;
21305;SDS011;10812;51.838;5.838;2023-06-22T12:32:21;18.67;;;16.77;;
21305;SDS011;10812;51.838;5.838;2023-06-22T12:34:49;19.45;;;17.50;;
21305;SDS011;10812;51.838;5.838;2023-06-22T12:37:17;19.88;;;17.88;;
21305;SDS011;10812;51.838;5.838;2023-06-22T12:39:45;19.45;;;17.42;;
21305;SDS011;10812;51.838;5.838;2023-06-22T12:42:14;19.15;;;17.08;;
21305;SDS011;10812;51.838;5.838;2023-06-22T12:44:44;19.52;;;16.85;;
21305;SDS011;10812;51.838;5.838;2023-06-22T12:47:12;18.80;;;16.80;;
21305;SDS011;10812;51.838;5.838;2023-06-22T12:49:40;18.98;;;17.13;;
21305;SDS011;10812;51.838;5.838;2023-06-22T12:52:09;21.13;;;18.98;;
21305;SDS011;10812;51.838;5.838;2023-06-22T12:54:37;22.60;;;20.15;;
21305;SDS011;10812;51.838;5.838;2023-06-22T12:57:20;25.75;;;21.80;;
21305;SDS011;10812;51.838;5.838;2023-06-22T12:59:50;24.35;;;21.80;;
21305;SDS011;10812;51.838;5.838;2023-06-22T13:02:18;26.45;;;22.38;;
21305;SDS011;10812;51.838;5.838;2023-06-22T13:04:46;23.88;;;21.55;;
21305;SDS011;10812;51.838;5.838;2023-06-22T13:07:14;23.30;;;20.92;;
21305;SDS011;10812;51.838;5.838;2023-06-22T13:09:48;23.48;;;20.98;;
21305;SDS011;10812;51.838;5.838;2023-06-22T13:12:19;25.90;;;22.65;;
21305;SDS011;10812;51.838;5.838;2023-06-22T13:14:48;25.15;;;22.48;;
21305;SDS011;10812;51.838;5.838;2023-06-22T13:17:18;24.88;;;22.30;;
21305;SDS011;10812;51.838;5.838;2023-06-22T13:19:46;26.85;;;23.98;;
21305;SDS011;10812;51.838;5.838;2023-06-22T13:22:27;26.08;;;23.23;;
21305;SDS011;10812;51.838;5.838;2023-06-22T13:24:57;23.88;;;21.38;;
21305;SDS011;10812;51.838;5.838;2023-06-22T13:27:26;22.52;;;20.23;;
21305;SDS011;10812;51.838;5.838;2023-06-22T13:29:56;23.35;;;19.60;;
21305;SDS011;10812;51.838;5.838;2023-06-22T13:32:24;21.02;;;18.85;;
21305;SDS011;10812;51.838;5.838;2023-06-22T13:34:52;18.45;;;16.55;;
21305;SDS011;10812;51.838;5.838;2023-06-22T13:37:21;18.58;;;16.75;;
21305;SDS011;10812;51.838;5.838;2023-06-22T13:43:40;17.23;;;15.52;;
21305;SDS011;10812;51.838;5.838;2023-06-22T13:46:09;18.33;;;16.33;;
21305;SDS011;10812;51.838;5.838;2023-06-22T13:48:38;18.17;;;16.27;;
21305;SDS011;10812;51.838;5.838;2023-06-22T13:51:06;17.55;;;15.75;;
21305;SDS011;10812;51.838;5.838;2023-06-22T13:53:34;17.10;;;15.32;;
21305;SDS011;10812;51.838;5.838;2023-06-22T13:56:03;17.13;;;15.30;;
21305;SDS011;10812;51.838;5.838;2023-06-22T13:58:31;18.23;;;16.33;;
21305;SDS011;10812;51.838;5.838;2023-06-22T14:00:59;19.05;;;15.40;;
21305;SDS011;10812;51.838;5.838;2023-06-22T14:03:29;19.05;;;16.27;;
21305;SDS011;10812;51.838;5.838;2023-06-22T14:05:57;18.38;;;16.13;;
21305;SDS011;10812;51.838;5.838;2023-06-22T14:08:25;18.63;;;16.60;;
21305;SDS011;10812;51.838;5.838;2023-06-22T14:10:57;19.52;;;17.42;;
21305;SDS011;10812;51.838;5.838;2023-06-22T14:13:25;20.95;;;18.75;;
21305;SDS011;10812;51.838;5.838;2023-06-22T14:15:53;19.60;;;17.67;;
21305;SDS011;10812;51.838;5.838;2023-06-22T14:18:21;21.30;;;19.13;;
21305;SDS011;10812;51.838;5.838;2023-06-22T14:20:51;21.58;;;19.38;;
21305;SDS011;10812;51.838;5.838;2023-06-22T14:23:19;22.85;;;19.27;;
21305;SDS011;10812;51.838;5.838;2023-06-22T14:25:47;22.42;;;20.15;;
21305;SDS011;10812;51.838;5.838;2023-06-22T14:28:15;21.45;;;19.27;;
21305;SDS011;10812;51.838;5.838;2023-06-22T14:30:43;23.85;;;21.10;;
21305;SDS011;10812;51.838;5.838;2023-06-22T14:33:12;22.55;;;20.25;;
21305;SDS011;10812;51.838;5.838;2023-06-22T14:35:40;23.73;;;21.02;;
21305;SDS011;10812;51.838;5.838;2023-06-22T14:38:10;24.23;;;20.95;;
21305;SDS011;10812;51.838;5.838;2023-06-22T14:40:38;24.60;;;20.98;;
21305;SDS011;10812;51.838;5.838;2023-06-22T14:43:26;23.80;;;20.98;;
21305;SDS011;10812;51.838;5.838;2023-06-22T14:45:54;24.65;;;22.08;;
21305;SDS011;10812;51.838;5.838;2023-06-22T14:48:23;23.88;;;21.23;;
21305;SDS011;10812;51.838;5.838;2023-06-22T14:50:51;26.35;;;22.23;;
21305;SDS011;10812;51.838;5.838;2023-06-22T14:53:21;25.73;;;22.90;;
21305;SDS011;10812;51.838;5.838;2023-06-22T14:55:50;27.30;;;23.17;;
21305;SDS011;10812;51.838;5.838;2023-06-22T14:58:19;27.27;;;24.38;;
21305;SDS011;10812;51.838;5.838;2023-06-22T15:00:48;29.90;;;24.65;;
21305;SDS011;10812;51.838;5.838;2023-06-22T15:03:16;28.10;;;24.15;;
21305;SDS011;10812;51.838;5.838;2023-06-22T15:05:48;29.40;;;24.73;;
21305;SDS011;10812;51.838;5.838;2023-06-22T15:08:16;26.95;;;23.35;;